Time;durP1;ratioP1;P1;durP2;ratioP2;P2;SDS_P1;SDS_P2;PMS_P1;PMS_P2;Temp;Humidity;BMP_temperature;BMP_pressure;BME280_temperature;BME280_humidity;BME280_pressure;Samples;Min_cycle;Max_cycle;Signal;HPM_P1;HPM_P2
2021/05/09 00:02:16;;;;;;;;;;;13.10;99.90;;;;;;10499489;28;19925;-86
2021/05/09 00:07:17;;;;;;;;;;;12.90;99.90;;;;;;10497646;28;20038;-85
2021/05/09 00:12:18;;;;;;;;;;;12.90;99.90;;;;;;10499050;28;20268;-86
2021/05/09 00:17:20;;;;;;;;;;;12.80;99.90;;;;;;10480748;28;19978;-86
2021/05/09 00:22:21;;;;;;;;;;;12.40;99.90;;;;;;10439753;28;20291;-86
2021/05/09 00:27:23;;;;;;;;;;;12.60;99.90;;;;;;10439852;28;20376;-86
2021/05/09 00:32:24;;;;;;;;;;;12.20;99.90;;;;;;10457759;28;19925;-86
2021/05/09 00:37:26;;;;;;;;;;;11.90;99.90;;;;;;10456825;28;19925;-86
2021/05/09 00:42:28;;;;;;;;;;;12.40;99.90;;;;;;10439326;28;20394;-86
2021/05/09 00:47:30;;;;;;;;;;;12.00;99.90;;;;;;10440111;28;19924;-86
2021/05/09 00:52:32;;;;;;;;;;;11.80;99.90;;;;;;10438991;28;19925;-86
2021/05/09 00:57:36;;;;;;;;;;;11.70;99.90;;;;;;10463312;28;19933;-86
2021/05/09 01:02:39;;;;;;;;;;;11.50;99.90;;;;;;10501413;28;19924;-86
2021/05/09 01:07:41;;;;;;;;;;;11.70;99.90;;;;;;10506498;28;19924;-86
2021/05/09 01:12:42;;;;;;;;;;;11.40;99.90;;;;;;10505068;28;20367;-86
2021/05/09 01:17:44;;;;;;;;;;;11.60;99.90;;;;;;10506651;28;19924;-86
2021/05/09 01:22:45;;;;;;;;;;;11.40;99.90;;;;;;10504122;28;19932;-86
2021/05/09 01:27:47;;;;;;;;;;;11.30;99.90;;;;;;10475400;28;19932;-86
2021/05/09 01:32:49;;;;;;;;;;;11.10;99.90;;;;;;10464753;28;19925;-86
2021/05/09 01:37:50;;;;;;;;;;;11.00;99.90;;;;;;10446087;28;20383;-85
2021/05/09 01:42:52;;;;;;;;;;;10.80;99.90;;;;;;10446716;28;19978;-85
2021/05/09 01:47:54;;;;;;;;;;;10.80;99.90;;;;;;10473485;28;19936;-86
2021/05/09 01:52:55;;;;;;;;;;;10.60;99.90;;;;;;10444170;28;19974;-86
2021/05/09 01:57:57;;;;;;;;;;;10.50;99.90;;;;;;10472308;28;19931;-86
2021/05/09 02:02:58;;;;;;;;;;;10.60;99.90;;;;;;10501895;28;20383;-86
2021/05/09 02:07:59;;;;;;;;;;;10.60;99.90;;;;;;10497476;28;19930;-86
2021/05/09 02:13:01;;;;;;;;;;;10.40;99.90;;;;;;10503651;28;20383;-86
2021/05/09 02:18:02;;;;;;;;;;;10.40;99.90;;;;;;10479869;28;19947;-86
2021/05/09 02:23:03;;;;;;;;;;;10.20;99.90;;;;;;10462157;28;19924;-86
2021/05/09 02:28:05;;;;;;;;;;;10.20;99.90;;;;;;10461864;28;20376;-85
2021/05/09 02:33:10;;;;;;;;;;;10.20;99.90;;;;;;10462339;28;19925;-86
2021/05/09 02:38:11;;;;;;;;;;;10.30;99.90;;;;;;10489743;28;19924;-86
2021/05/09 02:43:16;;;;;;;;;;;10.50;99.90;;;;;;10468030;28;20352;-86
2021/05/09 02:48:17;;;;;;;;;;;10.60;99.90;;;;;;10444079;28;19935;-86
2021/05/09 02:53:18;;;;;;;;;;;10.60;99.90;;;;;;10461450;28;19947;-86
2021/05/09 02:58:20;;;;;;;;;;;10.40;99.90;;;;;;10478806;28;19924;-86
2021/05/09 03:03:21;;;;;;;;;;;10.70;99.90;;;;;;10502604;28;19932;-86
2021/05/09 03:08:22;;;;;;;;;;;10.70;99.90;;;;;;10501676;28;20704;-86
2021/05/09 03:13:24;;;;;;;;;;;10.90;99.90;;;;;;10497723;28;19990;-86
2021/05/09 03:18:26;;;;;;;;;;;10.90;99.90;;;;;;10460603;28;19924;-86
2021/05/09 03:23:27;;;;;;;;;;;10.80;99.90;;;;;;10426006;28;20283;-85
2021/05/09 03:28:28;;;;;;;;;;;10.80;99.90;;;;;;10441664;28;20410;-86
2021/05/09 03:33:30;;;;;;;;;;;10.90;99.90;;;;;;10425841;28;19958;-86
2021/05/09 03:38:32;;;;;;;;;;;10.70;99.90;;;;;;10425193;28;19931;-86
2021/05/09 03:43:33;;;;;;;;;;;10.70;99.90;;;;;;10443049;28;19924;-85
2021/05/09 03:48:35;;;;;;;;;;;10.70;99.90;;;;;;10441329;28;19924;-86
2021/05/09 03:53:36;;;;;;;;;;;10.80;99.90;;;;;;10441178;28;19925;-86
2021/05/09 03:58:37;;;;;;;;;;;10.80;99.90;;;;;;10459069;28;19935;-86
2021/05/09 04:03:38;;;;;;;;;;;10.70;99.90;;;;;;10444780;28;19924;-86
2021/05/09 04:08:40;;;;;;;;;;;10.70;99.90;;;;;;10481964;28;19960;-86
2021/05/09 04:13:48;;;;;;;;;;;10.50;99.90;;;;;;10482258;28;19938;-86
2021/05/09 04:18:49;;;;;;;;;;;10.50;99.90;;;;;;10482131;28;19924;-86
2021/05/09 04:23:51;;;;;;;;;;;10.80;99.90;;;;;;10477336;28;19933;-86
2021/05/09 04:28:52;;;;;;;;;;;11.00;99.90;;;;;;10480507;28;19928;-86
2021/05/09 04:33:54;;;;;;;;;;;11.30;99.90;;;;;;10480858;28;19924;-86
2021/05/09 04:38:55;;;;;;;;;;;11.60;99.90;;;;;;10495417;28;20287;-86
2021/05/09 04:43:59;;;;;;;;;;;11.70;99.90;;;;;;10499204;28;20015;-86
2021/05/09 04:49:00;;;;;;;;;;;11.90;99.90;;;;;;10498347;28;20447;-86
2021/05/09 04:54:01;;;;;;;;;;;12.00;99.90;;;;;;10479861;28;20372;-86
2021/05/09 04:59:03;;;;;;;;;;;12.10;99.90;;;;;;10464413;28;19924;-85
2021/05/09 05:04:04;;;;;;;;;;;12.20;99.90;;;;;;10463630;28;19925;-85
2021/05/09 05:09:06;;;;;;;;;;;12.30;99.90;;;;;;10497923;28;19925;-85
2021/05/09 05:14:07;;;;;;;;;;;12.50;99.90;;;;;;10480829;28;19928;-85
2021/05/09 05:19:08;;;;;;;;;;;12.50;99.90;;;;;;10480719;28;19924;-86
2021/05/09 05:24:09;;;;;;;;;;;12.60;99.90;;;;;;10489482;28;19959;-85
2021/05/09 05:29:11;;;;;;;;;;;12.80;99.90;;;;;;10473904;28;19930;-85
2021/05/09 05:34:12;;;;;;;;;;;12.90;99.90;;;;;;10498143;28;19925;-85
2021/05/09 05:39:13;;;;;;;;;;;13.00;99.90;;;;;;10501574;22;20303;-84
2021/05/09 05:44:14;;;;;;;;;;;13.70;99.90;;;;;;10479364;28;19924;-84
2021/05/09 05:49:22;;;;;;;;;;;13.20;99.90;;;;;;10485080;28;19939;-83
2021/05/09 05:54:25;;;;;;;;;;;13.20;99.90;;;;;;10505280;28;19924;-83
2021/05/09 05:59:26;;;;;;;;;;;13.20;99.90;;;;;;10504489;28;19924;-84
2021/05/09 06:04:27;;;;;;;;;;;13.30;99.90;;;;;;10503757;28;19924;-83
2021/05/09 06:09:29;;;;;;;;;;;13.30;99.90;;;;;;10445418;28;19935;-84
2021/05/09 06:14:30;;;;;;;;;;;13.70;99.90;;;;;;10478011;28;19970;-84
2021/05/09 06:19:41;;;;;;;;;;;14.10;99.90;;;;;;10487317;28;19928;-84
2021/05/09 06:24:43;;;;;;;;;;;14.50;99.90;;;;;;10485439;28;19986;-84
2021/05/09 06:29:44;;;;;;;;;;;14.30;99.90;;;;;;10449741;28;20394;-83
2021/05/09 06:34:45;;;;;;;;;;;12.80;99.90;;;;;;10484701;28;20368;-84
2021/05/09 06:39:47;;;;;;;;;;;14.30;99.90;;;;;;10489734;28;19932;-84
2021/05/09 06:44:53;;;;;;;;;;;14.80;99.90;;;;;;10460315;28;20135;-83
2021/05/09 06:49:55;;;;;;;;;;;15.20;99.90;;;;;;10462810;28;19924;-84
2021/05/09 06:54:56;;;;;;;;;;;15.50;99.90;;;;;;10500377;28;19924;-84
2021/05/09 06:59:58;;;;;;;;;;;16.10;99.90;;;;;;10500035;28;20390;-84
2021/05/09 07:04:59;;;;;;;;;;;16.70;99.90;;;;;;10501250;28;19932;-84
2021/05/09 07:10:00;;;;;;;;;;;17.40;99.90;;;;;;10502270;28;19935;-84
2021/05/09 07:15:04;;;;;;;;;;;18.20;99.90;;;;;;10502002;28;19925;-84
2021/05/09 07:20:05;;;;;;;;;;;18.40;99.90;;;;;;10500439;28;19925;-84
2021/05/09 07:25:07;;;;;;;;;;;18.80;99.90;;;;;;10499179;28;20358;-84
2021/05/09 07:30:08;;;;;;;;;;;19.10;99.90;;;;;;10500362;28;19924;-84
2021/05/09 07:35:09;;;;;;;;;;;19.60;99.90;;;;;;10500159;28;19925;-84
2021/05/09 07:40:11;;;;;;;;;;;20.10;99.60;;;;;;10504213;28;19955;-84
2021/05/09 07:45:20;;;;;;;;;;;20.30;96.30;;;;;;10489617;28;19931;-84
2021/05/09 07:50:25;;;;;;;;;;;20.20;95.90;;;;;;10440080;28;19931;-84
2021/05/09 07:55:27;;;;;;;;;;;20.60;95.90;;;;;;10454358;28;19925;-84
2021/05/09 08:00:28;;;;;;;;;;;21.10;94.40;;;;;;10498025;28;20501;-84
2021/05/09 08:05:29;;;;;;;;;;;20.70;93.10;;;;;;10498321;28;19924;-84
2021/05/09 08:10:35;;;;;;;;;;;20.00;96.10;;;;;;10439243;28;20040;-85
2021/05/09 08:15:37;;;;;;;;;;;21.50;94.80;;;;;;10478093;28;19975;-85
2021/05/09 08:20:38;;;;;;;;;;;22.10;90.80;;;;;;10493479;28;19950;-85
2021/05/09 08:25:40;;;;;;;;;;;22.00;90.50;;;;;;10493021;28;19928;-85
2021/05/09 08:30:41;;;;;;;;;;;22.60;89.40;;;;;;10494012;28;19924;-86
2021/05/09 08:35:43;;;;;;;;;;;22.20;89.10;;;;;;10475646;28;19924;-85
2021/05/09 08:40:44;;;;;;;;;;;22.30;90.00;;;;;;10484592;28;19924;-85
2021/05/09 08:45:45;;;;;;;;;;;22.40;90.60;;;;;;10442296;28;20301;-85
2021/05/09 08:50:48;;;;;;;;;;;22.30;91.70;;;;;;10444448;28;19931;-86
2021/05/09 08:55:49;;;;;;;;;;;22.20;91.80;;;;;;10427467;28;19935;-85
2021/05/09 09:00:50;;;;;;;;;;;22.40;92.40;;;;;;10431208;28;19931;-86
2021/05/09 09:05:52;;;;;;;;;;;23.20;92.60;;;;;;10505874;28;19934;-85
2021/05/09 09:10:53;;;;;;;;;;;23.00;91.20;;;;;;10520907;28;19931;-86
2021/05/09 09:15:57;;;;;;;;;;;23.00;92.10;;;;;;10489790;28;19928;-85
2021/05/09 09:20:59;;;;;;;;;;;23.20;92.60;;;;;;10488777;28;19973;-86
2021/05/09 09:26:00;;;;;;;;;;;23.40;91.50;;;;;;10500666;28;20430;-85
2021/05/09 09:31:01;;;;;;;;;;;23.40;91.90;;;;;;10505247;28;20026;-86
2021/05/09 09:36:18;;;;;;;;;;;23.40;92.30;;;;;;10496433;28;20303;-86
2021/05/09 09:41:20;;;;;;;;;;;24.20;91.70;;;;;;10483863;28;20030;-86
2021/05/09 09:46:26;;;;;;;;;;;23.70;91.20;;;;;;10483829;28;20268;-86
2021/05/09 09:51:28;;;;;;;;;;;23.60;91.40;;;;;;10487195;28;19928;-86
2021/05/09 09:56:29;;;;;;;;;;;23.50;91.90;;;;;;10487248;28;19928;-86
2021/05/09 10:01:32;;;;;;;;;;;24.40;90.50;;;;;;10486609;28;20019;-86
2021/05/09 10:06:39;;;;;;;;;;;23.90;90.20;;;;;;10504347;28;19978;-87
2021/05/09 10:11:40;;;;;;;;;;;24.30;90.70;;;;;;10486416;28;19971;-86
2021/05/09 10:16:42;;;;;;;;;;;24.60;90.70;;;;;;10485965;28;19924;-86
2021/05/09 10:21:43;;;;;;;;;;;23.30;93.10;;;;;;10484384;28;19925;-86
2021/05/09 10:26:48;;;;;;;;;;;23.50;91.60;;;;;;10457915;28;20398;-86
2021/05/09 10:31:49;;;;;;;;;;;23.90;92.50;;;;;;10457773;28;20422;-87
2021/05/09 10:36:51;;;;;;;;;;;25.20;90.80;;;;;;10456589;28;20299;-87
2021/05/09 10:41:56;;;;;;;;;;;24.80;89.40;;;;;;10456129;28;19940;-87
2021/05/09 10:47:01;;;;;;;;;;;24.20;90.50;;;;;;10438559;28;20015;-86
2021/05/09 10:52:21;;;;;;;;;;;23.80;91.90;;;;;;10458534;28;20024;-87
2021/05/09 10:57:41;;;;;;;;;;;23.70;92.50;;;;;;10399310;28;20261;-87
2021/05/09 11:02:43;;;;;;;;;;;24.20;91.80;;;;;;10410925;28;20015;-86
2021/05/09 11:07:45;;;;;;;;;;;23.70;93.40;;;;;;10440510;28;19929;-87
2021/05/09 11:13:02;;;;;;;;;;;23.40;93.00;;;;;;10438909;28;19928;-87
2021/05/09 11:18:13;;;;;;;;;;;22.60;94.50;;;;;;10439017;28;20405;-88
2021/05/09 11:23:14;;;;;;;;;;;22.40;96.50;;;;;;10438209;28;19929;-86
2021/05/09 11:28:25;;;;;;;;;;;22.30;96.20;;;;;;10421280;28;20031;-85
2021/05/09 11:33:46;;;;;;;;;;;22.80;95.50;;;;;;10453853;28;19999;-86
2021/05/09 11:38:48;;;;;;;;;;;23.60;94.30;;;;;;10435923;28;20372;-87
2021/05/09 11:44:03;;;;;;;;;;;23.60;94.40;;;;;;10435621;28;20418;-87
2021/05/09 11:54:32;;;;;;;;;;;23.60;93.80;;;;;;10334600;28;19949;-86
2021/05/09 11:59:33;;;;;;;;;;;23.30;94.40;;;;;;10328700;28;19941;-86
2021/05/09 12:04:34;;;;;;;;;;;23.50;94.10;;;;;;10275310;28;19933;-86
2021/05/09 12:09:36;;;;;;;;;;;23.30;94.50;;;;;;10283244;28;19937;-86
2021/05/09 12:14:38;;;;;;;;;;;23.30;95.60;;;;;;10306044;28;19961;-87
2021/05/09 12:19:39;;;;;;;;;;;23.50;96.20;;;;;;10310601;28;19926;-86
2021/05/09 12:24:47;;;;;;;;;;;23.90;97.20;;;;;;10289631;28;19925;-86
2021/05/09 12:29:49;;;;;;;;;;;24.40;95.60;;;;;;10317192;28;20339;-84
2021/05/09 12:35:06;;;;;;;;;;;24.70;92.50;;;;;;10317561;28;19933;-84
2021/05/09 12:40:31;;;;;;;;;;;24.60;91.50;;;;;;10313243;28;19933;-84
2021/05/09 12:45:32;;;;;;;;;;;24.20;90.90;;;;;;10287354;28;20374;-84
2021/05/09 12:50:46;;;;;;;;;;;24.20;91.00;;;;;;10294106;28;19932;-85
2021/05/09 12:55:47;;;;;;;;;;;24.30;89.60;;;;;;10276750;28;19932;-85
2021/05/09 13:00:49;;;;;;;;;;;24.20;88.70;;;;;;10317817;28;19929;-85
2021/05/09 13:05:53;;;;;;;;;;;24.00;89.50;;;;;;10325319;28;19936;-85
2021/05/09 13:10:55;;;;;;;;;;;23.80;91.60;;;;;;10342423;28;19926;-84
2021/05/09 13:15:56;;;;;;;;;;;23.40;95.40;;;;;;10339266;28;20012;-85
2021/05/09 13:21:00;;;;;;;;;;;23.10;95.00;;;;;;10323422;28;20297;-85
2021/05/09 13:26:01;;;;;;;;;;;23.10;97.90;;;;;;10340184;28;19969;-85
2021/05/09 13:31:02;;;;;;;;;;;23.30;95.10;;;;;;10340987;28;20365;-84
2021/05/09 13:36:04;;;;;;;;;;;24.10;94.40;;;;;;10340102;28;19929;-85
2021/05/09 13:41:05;;;;;;;;;;;24.70;92.70;;;;;;10312320;28;19926;-85
2021/05/09 13:46:06;;;;;;;;;;;24.50;92.50;;;;;;10294696;28;20277;-88
2021/05/09 13:51:08;;;;;;;;;;;25.30;92.10;;;;;;10298883;28;20289;-86
2021/05/09 13:56:09;;;;;;;;;;;25.90;91.20;;;;;;10283095;28;19930;-86
2021/05/09 14:01:10;;;;;;;;;;;26.40;88.80;;;;;;10314804;28;19930;-86
2021/05/09 14:06:12;;;;;;;;;;;26.40;85.90;;;;;;10300201;28;20017;-86
2021/05/09 14:11:14;;;;;;;;;;;26.10;84.50;;;;;;10296394;28;19930;-86
2021/05/09 14:16:17;;;;;;;;;;;26.50;85.10;;;;;;10293701;28;20296;-86
2021/05/09 14:21:19;;;;;;;;;;;26.10;83.50;;;;;;10315188;28;19969;-87
2021/05/09 14:26:21;;;;;;;;;;;26.70;83.30;;;;;;10337921;28;19932;-86
2021/05/09 14:31:22;;;;;;;;;;;26.10;85.60;;;;;;10337673;28;19926;-86
2021/05/09 14:36:24;;;;;;;;;;;26.50;78.70;;;;;;10338775;28;19926;-87
2021/05/09 14:41:25;;;;;;;;;;;26.30;82.00;;;;;;10299124;28;19926;-86
2021/05/09 14:46:26;;;;;;;;;;;26.00;81.60;;;;;;10298767;28;19933;-86
2021/05/09 14:51:28;;;;;;;;;;;25.90;79.40;;;;;;10310498;28;19965;-86
2021/05/09 14:56:33;;;;;;;;;;;25.60;79.80;;;;;;10305431;28;19945;-86
2021/05/09 15:01:34;;;;;;;;;;;26.20;84.50;;;;;;10337773;28;20289;-86
2021/05/09 15:06:36;;;;;;;;;;;25.80;80.60;;;;;;10366126;28;19930;-85
2021/05/09 15:11:38;;;;;;;;;;;25.70;79.70;;;;;;10345218;28;19952;-86
2021/05/09 15:16:39;;;;;;;;;;;25.80;86.70;;;;;;10338445;28;19976;-87
2021/05/09 15:21:40;;;;;;;;;;;26.50;81.70;;;;;;10317933;28;20392;-87
2021/05/09 15:26:44;;;;;;;;;;;26.60;81.10;;;;;;10337512;28;19965;-87
2021/05/09 15:31:45;;;;;;;;;;;26.10;77.80;;;;;;10304166;28;19925;-87
2021/05/09 15:36:47;;;;;;;;;;;26.00;80.20;;;;;;10303623;28;19926;-87
2021/05/09 15:41:51;;;;;;;;;;;26.20;80.60;;;;;;10359758;28;20021;-86
2021/05/09 15:46:57;;;;;;;;;;;26.40;78.60;;;;;;10361719;28;19926;-87
2021/05/09 15:51:58;;;;;;;;;;;26.70;77.50;;;;;;10335959;28;19926;-87
2021/05/09 15:57:00;;;;;;;;;;;27.30;77.00;;;;;;10317617;28;19984;-85
2021/05/09 16:02:01;;;;;;;;;;;27.30;77.10;;;;;;10318409;28;20017;-85
2021/05/09 16:07:02;;;;;;;;;;;27.50;75.90;;;;;;10336787;28;20017;-86
2021/05/09 16:12:04;;;;;;;;;;;27.20;77.80;;;;;;10358193;28;19925;-86
2021/05/09 16:17:07;;;;;;;;;;;27.30;74.90;;;;;;10357689;28;20543;-85
2021/05/09 16:22:08;;;;;;;;;;;27.20;74.00;;;;;;10358424;28;19932;-85
2021/05/09 16:27:09;;;;;;;;;;;27.10;73.70;;;;;;10376032;28;19926;-86
2021/05/09 16:32:11;;;;;;;;;;;26.90;75.00;;;;;;10342066;28;19932;-86
2021/05/09 16:37:12;;;;;;;;;;;26.70;74.50;;;;;;10353141;28;19926;-86
2021/05/09 16:42:14;;;;;;;;;;;26.30;76.60;;;;;;10331197;28;19925;-86
2021/05/09 16:47:15;;;;;;;;;;;25.80;78.50;;;;;;10374521;28;20369;-86
2021/05/09 16:52:24;;;;;;;;;;;25.70;77.80;;;;;;10374710;28;19925;-86
2021/05/09 16:57:26;;;;;;;;;;;25.70;76.80;;;;;;10358401;28;19930;-86
2021/05/09 17:02:28;;;;;;;;;;;25.60;82.00;;;;;;10372289;28;20146;-86
2021/05/09 17:07:30;;;;;;;;;;;25.70;79.60;;;;;;10347238;28;19926;-86
2021/05/09 17:12:31;;;;;;;;;;;25.30;80.30;;;;;;10316372;28;19976;-86
2021/05/09 17:17:33;;;;;;;;;;;25.20;81.30;;;;;;10334213;28;19932;-86
2021/05/09 17:22:34;;;;;;;;;;;25.20;82.50;;;;;;10366374;28;19925;-86
2021/05/09 17:27:36;;;;;;;;;;;24.60;87.10;;;;;;10352563;28;19925;-86
2021/05/09 17:32:38;;;;;;;;;;;24.40;85.00;;;;;;10337037;28;19992;-86
2021/05/09 17:37:39;;;;;;;;;;;24.10;90.90;;;;;;10341283;28;19933;-86
2021/05/09 17:42:41;;;;;;;;;;;24.00;90.60;;;;;;10342631;28;20373;-86
2021/05/09 17:47:42;;;;;;;;;;;23.90;91.80;;;;;;10365104;28;20403;-86
2021/05/09 17:52:44;;;;;;;;;;;23.80;93.70;;;;;;10358835;23;19932;-86
2021/05/09 17:57:45;;;;;;;;;;;23.80;91.30;;;;;;10380368;28;19929;-86
2021/05/09 18:02:47;;;;;;;;;;;23.70;95.20;;;;;;10363906;28;19926;-86
2021/05/09 18:07:49;;;;;;;;;;;23.50;96.30;;;;;;10363656;28;19930;-86
2021/05/09 18:12:52;;;;;;;;;;;23.30;97.30;;;;;;10363073;28;19929;-86
2021/05/09 18:23:11;;;;;;;;;;;22.60;99.90;;;;;;10364782;28;20128;-86
2021/05/09 18:28:12;;;;;;;;;;;22.40;99.90;;;;;;10380357;28;19932;-86
2021/05/09 18:33:14;;;;;;;;;;;22.20;99.90;;;;;;10362705;28;19926;-85
2021/05/09 18:38:16;;;;;;;;;;;22.10;99.90;;;;;;10362404;28;19936;-86
2021/05/09 18:43:17;;;;;;;;;;;22.00;99.90;;;;;;10362541;28;19932;-86
2021/05/09 18:48:18;;;;;;;;;;;22.10;99.90;;;;;;10365690;28;20385;-85
2021/05/09 18:53:19;;;;;;;;;;;22.00;99.30;;;;;;10338091;28;19930;-86
2021/05/09 18:58:21;;;;;;;;;;;22.00;98.40;;;;;;10319908;28;19932;-86
2021/05/09 19:03:23;;;;;;;;;;;21.70;99.70;;;;;;10338625;28;19932;-86
2021/05/09 19:08:28;;;;;;;;;;;21.40;99.90;;;;;;10337620;28;20388;-86
2021/05/09 19:13:30;;;;;;;;;;;21.00;99.90;;;;;;10334198;28;19929;-86
2021/05/09 19:18:31;;;;;;;;;;;21.00;99.90;;;;;;10333737;28;19929;-86
2021/05/09 19:23:33;;;;;;;;;;;20.70;99.90;;;;;;10302148;28;19969;-86
2021/05/09 19:28:51;;;;;;;;;;;20.40;99.90;;;;;;10321796;28;19929;-86
2021/05/09 19:33:53;;;;;;;;;;;20.30;99.90;;;;;;10337149;28;19926;-86
2021/05/09 19:38:54;;;;;;;;;;;20.10;99.90;;;;;;10303870;28;19925;-85
2021/05/09 19:43:57;;;;;;;;;;;20.10;99.90;;;;;;10319096;28;20762;-86
2021/05/09 19:48:58;;;;;;;;;;;19.80;99.90;;;;;;10319140;28;19926;-85
2021/05/09 19:53:59;;;;;;;;;;;19.80;99.90;;;;;;10335685;28;19937;-86
2021/05/09 19:59:01;;;;;;;;;;;19.60;99.90;;;;;;10319242;28;20016;-86
2021/05/09 20:04:02;;;;;;;;;;;19.30;99.90;;;;;;10303011;28;19940;-86
2021/05/09 20:09:04;;;;;;;;;;;19.10;99.90;;;;;;10317155;28;19926;-85
2021/05/09 20:14:05;;;;;;;;;;;19.10;99.90;;;;;;10301842;28;19926;-86
2021/05/09 20:19:06;;;;;;;;;;;18.80;99.90;;;;;;10302863;28;19932;-86
2021/05/09 20:24:10;;;;;;;;;;;18.70;99.90;;;;;;10318141;28;20020;-86
2021/05/09 20:29:14;;;;;;;;;;;18.70;99.90;;;;;;10331982;28;20399;-86
2021/05/09 20:34:21;;;;;;;;;;;18.50;99.90;;;;;;10318072;28;19930;-86
2021/05/09 20:39:23;;;;;;;;;;;18.60;99.90;;;;;;10317285;28;19947;-86
2021/05/09 20:44:24;;;;;;;;;;;18.50;99.90;;;;;;10317570;28;19925;-86
2021/05/09 20:49:25;;;;;;;;;;;18.50;99.90;;;;;;10301762;28;19925;-86
2021/05/09 20:54:26;;;;;;;;;;;18.50;99.90;;;;;;10354940;28;20415;-86
2021/05/09 20:59:28;;;;;;;;;;;18.40;99.90;;;;;;10340683;28;19925;-86
2021/05/09 21:04:29;;;;;;;;;;;18.30;99.90;;;;;;10373241;28;19930;-86
2021/05/09 21:09:30;;;;;;;;;;;18.30;99.90;;;;;;10374363;28;19929;-86
2021/05/09 21:14:31;;;;;;;;;;;18.10;99.90;;;;;;10361179;28;19930;-86
2021/05/09 21:19:33;;;;;;;;;;;18.10;99.90;;;;;;10376042;28;20388;-86
2021/05/09 21:24:34;;;;;;;;;;;18.00;99.90;;;;;;10365757;28;19926;-86
2021/05/09 21:29:36;;;;;;;;;;;18.10;99.90;;;;;;10383093;28;19926;-86
2021/05/09 21:34:37;;;;;;;;;;;17.90;99.90;;;;;;10381893;28;20017;-85
2021/05/09 21:39:38;;;;;;;;;;;18.30;99.90;;;;;;10324985;28;19948;-86
2021/05/09 21:44:40;;;;;;;;;;;19.20;99.90;;;;;;10341464;28;19930;-86
2021/05/09 21:49:41;;;;;;;;;;;19.30;99.90;;;;;;10341476;28;19960;-86
2021/05/09 21:54:42;;;;;;;;;;;19.10;99.90;;;;;;10340632;28;19929;-86
2021/05/09 21:59:43;;;;;;;;;;;18.90;99.90;;;;;;10324089;28;19926;-86
2021/05/09 22:04:45;;;;;;;;;;;18.90;99.90;;;;;;10341543;28;19932;-86
2021/05/09 22:09:46;;;;;;;;;;;18.60;99.90;;;;;;10340804;28;19926;-86
2021/05/09 22:14:48;;;;;;;;;;;18.30;99.90;;;;;;10322804;28;19932;-86
2021/05/09 22:19:49;;;;;;;;;;;18.10;99.90;;;;;;10323253;28;19926;-86
2021/05/09 22:24:54;;;;;;;;;;;18.00;99.90;;;;;;10322386;28;20384;-86
2021/05/09 22:29:56;;;;;;;;;;;17.90;99.90;;;;;;10339025;28;20288;-86
2021/05/09 22:34:57;;;;;;;;;;;17.80;99.90;;;;;;10339407;28;20365;-86
2021/05/09 22:39:58;;;;;;;;;;;17.60;99.90;;;;;;10339754;28;20016;-86
2021/05/09 22:45:00;;;;;;;;;;;17.60;99.90;;;;;;10332296;28;20018;-86
2021/05/09 22:50:04;;;;;;;;;;;17.50;99.90;;;;;;10283297;28;20409;-86
2021/05/09 22:55:06;;;;;;;;;;;17.50;99.90;;;;;;10339206;28;19926;-86
2021/05/09 23:00:09;;;;;;;;;;;17.50;99.90;;;;;;10321585;28;19926;-86
2021/05/09 23:05:10;;;;;;;;;;;17.40;99.90;;;;;;10338830;28;19930;-86
2021/05/09 23:10:12;;;;;;;;;;;17.30;99.90;;;;;;10338390;28;19926;-86
2021/05/09 23:15:13;;;;;;;;;;;17.20;99.90;;;;;;10350090;28;19925;-86
2021/05/09 23:20:38;;;;;;;;;;;17.20;99.90;;;;;;10342168;28;20013;-86
2021/05/09 23:25:39;;;;;;;;;;;17.10;99.90;;;;;;10337435;28;20324;-86
2021/05/09 23:30:41;;;;;;;;;;;17.00;99.90;;;;;;10337172;28;20292;-86
2021/05/09 23:35:42;;;;;;;;;;;17.00;99.90;;;;;;10304942;28;19925;-86
2021/05/09 23:40:43;;;;;;;;;;;17.00;99.90;;;;;;10303504;28;19932;-86
2021/05/09 23:45:44;;;;;;;;;;;16.90;99.90;;;;;;10319889;28;19926;-86
2021/05/09 23:50:46;;;;;;;;;;;16.90;99.90;;;;;;10338673;23;19932;-85
2021/05/09 23:55:48;;;;;;;;;;;17.10;99.90;;;;;;10359153;28;19926;-85
